Dunwoody, Georgia
Current Conditions -  °F | °C
As of 8:53 PM on Sunday 25 Jan 2015 (Local Time) from KPDK Reporting Station
Overcast Overcast  
Wind Chill: 11°   Ceiling: 6500
Heat Index: 11°   Visibility: 10mi
Dew Point:   Wind: 3mph
Humidity: 49%   Direction: 180°S
Pressure: 29.76"   Gusts: NA
Location:  33.95°N, 84.33°W
Report Text: KPDK 260153Z 18003KT 10SM OVC065 11/01 A2976 RMK AO2 SLP085 T01110006 $
Loading
Personal Weather Stations






























Interactive Weather Map New forecast layout! Learn more

10-Day Weather Forecast

Advertisements
Track Severe Weather on mobile